createdAt,value
2017-11-09T00:00:24.401Z,1014.98
2017-11-09T00:01:04.933Z,1015
2017-11-09T00:01:45.471Z,1014.99
2017-11-09T00:02:25.993Z,1015
2017-11-09T00:03:06.499Z,1014.98
2017-11-09T00:03:47.035Z,1014.98
2017-11-09T00:04:27.561Z,1015.01
2017-11-09T00:05:08.102Z,1014.98
2017-11-09T00:05:48.619Z,1014.97
2017-11-09T00:06:29.158Z,1014.98
2017-11-09T00:07:09.699Z,1014.99
2017-11-09T00:07:50.227Z,1014.99
2017-11-09T00:08:30.763Z,1014.95
2017-11-09T00:09:11.290Z,1015
2017-11-09T00:09:51.822Z,1015
2017-11-09T00:10:32.351Z,1015.01
2017-11-09T00:11:12.867Z,1015.01
2017-11-09T00:11:53.405Z,1014.95
2017-11-09T00:12:33.922Z,1014.98
2017-11-09T00:13:14.455Z,1014.99
2017-11-09T00:13:54.980Z,1014.99
2017-11-09T00:14:35.513Z,1014.96
2017-11-09T00:15:16.050Z,1014.96
2017-11-09T00:15:56.570Z,1014.99
2017-11-09T00:16:37.109Z,1015.01
2017-11-09T00:17:17.628Z,1014.96
2017-11-09T00:17:58.163Z,1015
2017-11-09T00:18:38.700Z,1014.95
2017-11-09T00:19:19.221Z,1014.97
2017-11-09T00:19:59.753Z,1014.99
2017-11-09T00:20:40.283Z,1015
2017-11-09T00:21:20.825Z,1014.99
2017-11-09T00:22:01.373Z,1015
2017-11-09T00:22:41.901Z,1015.02
2017-11-09T00:23:22.479Z,1015.04
2017-11-09T00:24:03.010Z,1015.03
2017-11-09T00:24:43.531Z,1015.03
2017-11-09T00:25:24.067Z,1015.06
2017-11-09T00:26:04.601Z,1015.07
2017-11-09T00:26:45.128Z,1015.07
2017-11-09T00:27:25.659Z,1015.05
2017-11-09T00:28:06.188Z,1015.03
2017-11-09T00:28:46.717Z,1015.08
2017-11-09T00:29:27.242Z,1015.04
2017-11-09T00:30:07.778Z,1015.08
2017-11-09T00:30:48.317Z,1015.04
2017-11-09T00:31:28.836Z,1015.07
2017-11-09T00:32:09.353Z,1015.08
2017-11-09T00:32:49.886Z,1015.08
2017-11-09T00:33:30.419Z,1015.08
2017-11-09T00:34:10.961Z,1015.09
2017-11-09T00:34:51.485Z,1015.07
2017-11-09T00:35:32.013Z,1015.1
2017-11-09T00:36:12.562Z,1015.09
2017-11-09T00:36:53.088Z,1015.1
2017-11-09T00:37:33.616Z,1015.13
2017-11-09T00:38:14.145Z,1015.11
2017-11-09T00:38:54.676Z,1015.07
2017-11-09T00:39:35.209Z,1015.09
2017-11-09T00:40:15.748Z,1015.16
2017-11-09T00:40:56.282Z,1015.13
2017-11-09T00:41:36.817Z,1015.13
2017-11-09T00:42:17.345Z,1015.12
2017-11-09T00:42:57.880Z,1015.12
2017-11-09T00:43:38.407Z,1015.13
2017-11-09T00:44:18.948Z,1015.13
2017-11-09T00:44:59.476Z,1015.1
2017-11-09T00:45:40.004Z,1015.11
2017-11-09T00:46:20.525Z,1015.08
2017-11-09T00:47:01.046Z,1015.15
2017-11-09T00:47:41.594Z,1015.1
2017-11-09T00:48:22.130Z,1015.13
2017-11-09T00:49:02.666Z,1015.13
2017-11-09T00:49:43.198Z,1015.14
2017-11-09T00:50:23.731Z,1015.11
2017-11-09T00:51:04.252Z,1015.11
2017-11-09T00:51:44.786Z,1015.12
2017-11-09T00:52:25.311Z,1015.17
2017-11-09T00:53:05.846Z,1015.18
2017-11-09T00:53:46.369Z,1015.17
2017-11-09T00:54:26.901Z,1015.19
2017-11-09T00:55:07.418Z,1015.16
2017-11-09T00:55:47.945Z,1015.17
2017-11-09T00:56:28.459Z,1015.2
2017-11-09T00:57:08.975Z,1015.19
2017-11-09T00:57:49.505Z,1015.17
2017-11-09T00:58:30.031Z,1015.21
2017-11-09T00:59:10.560Z,1015.2
2017-11-09T00:59:51.100Z,1015.2
2017-11-09T01:00:31.631Z,1015.2
2017-11-09T01:01:12.153Z,1015.22
2017-11-09T01:01:52.687Z,1015.19
2017-11-09T01:02:33.220Z,1015.19
2017-11-09T01:03:13.749Z,1015.17
2017-11-09T01:03:54.290Z,1015.21
2017-11-09T01:04:34.822Z,1015.18
2017-11-09T01:05:15.335Z,1015.22
2017-11-09T01:05:55.854Z,1015.21
2017-11-09T01:06:36.391Z,1015.23
2017-11-09T01:07:16.929Z,1015.23
2017-11-09T01:07:57.453Z,1015.2
2017-11-09T01:08:37.988Z,1015.25
2017-11-09T01:09:18.517Z,1015.24
2017-11-09T01:09:59.049Z,1015.26
2017-11-09T01:10:39.576Z,1015.29
2017-11-09T01:11:20.097Z,1015.32
2017-11-09T01:12:00.615Z,1015.26
2017-11-09T01:12:41.153Z,1015.3
2017-11-09T01:13:21.675Z,1015.32
2017-11-09T01:14:02.209Z,1015.31
2017-11-09T01:14:42.741Z,1015.29
2017-11-09T01:15:23.271Z,1015.25
2017-11-09T01:16:03.805Z,1015.29
2017-11-09T01:16:44.332Z,1015.32
2017-11-09T01:17:24.903Z,1015.31
2017-11-09T01:18:05.447Z,1015.3
2017-11-09T01:18:45.974Z,1015.32
2017-11-09T01:19:26.511Z,1015.26
2017-11-09T01:20:07.033Z,1015.29
2017-11-09T01:20:47.571Z,1015.31
2017-11-09T01:21:28.106Z,1015.27
2017-11-09T01:22:08.643Z,1015.3
2017-11-09T01:22:49.165Z,1015.35
2017-11-09T01:23:29.697Z,1015.28
2017-11-09T01:24:10.230Z,1015.28
2017-11-09T01:24:50.765Z,1015.29
2017-11-09T01:25:31.353Z,1015.31
2017-11-09T01:26:11.872Z,1015.33
2017-11-09T01:26:52.404Z,1015.33
2017-11-09T01:27:32.934Z,1015.36
2017-11-09T01:28:13.468Z,1015.36
2017-11-09T01:28:54.000Z,1015.37
2017-11-09T01:29:34.540Z,1015.38
2017-11-09T01:30:15.062Z,1015.4
2017-11-09T01:30:55.599Z,1015.4
2017-11-09T01:31:36.127Z,1015.4
2017-11-09T01:32:16.654Z,1015.39
2017-11-09T01:32:57.181Z,1015.43
2017-11-09T01:33:37.714Z,1015.43
2017-11-09T01:34:18.252Z,1015.42
2017-11-09T01:34:58.776Z,1015.45
2017-11-09T01:35:39.304Z,1015.45
2017-11-09T01:36:19.838Z,1015.44
2017-11-09T01:37:00.361Z,1015.48
2017-11-09T01:37:40.897Z,1015.47
2017-11-09T01:38:21.424Z,1015.45
2017-11-09T01:39:01.960Z,1015.47
2017-11-09T01:39:42.485Z,1015.42
2017-11-09T01:40:23.015Z,1015.52
2017-11-09T01:41:03.553Z,1015.48
2017-11-09T01:41:44.073Z,1015.51
2017-11-09T01:42:24.609Z,1015.46
2017-11-09T01:43:05.140Z,1015.52
2017-11-09T01:43:45.663Z,1015.51
2017-11-09T01:44:26.178Z,1015.5
2017-11-09T01:45:06.715Z,1015.51
2017-11-09T01:45:47.242Z,1015.49
2017-11-09T01:46:27.776Z,1015.49
2017-11-09T01:47:08.322Z,1015.5
2017-11-09T01:47:48.855Z,1015.48
2017-11-09T01:48:29.381Z,1015.51
2017-11-09T01:49:09.912Z,1015.48
2017-11-09T01:49:50.440Z,1015.51
2017-11-09T01:50:30.973Z,1015.53
2017-11-09T01:51:11.526Z,1015.48
2017-11-09T01:51:52.035Z,1015.5
2017-11-09T01:52:32.558Z,1015.53
2017-11-09T01:53:13.080Z,1015.54
2017-11-09T01:53:53.615Z,1015.53
2017-11-09T01:54:34.144Z,1015.5
2017-11-09T01:55:14.670Z,1015.49
2017-11-09T01:55:55.203Z,1015.49
2017-11-09T01:56:35.722Z,1015.51
2017-11-09T01:57:16.262Z,1015.46
2017-11-09T01:57:56.788Z,1015.47
2017-11-09T01:58:37.310Z,1015.47
2017-11-09T01:59:17.827Z,1015.5
2017-11-09T01:59:58.350Z,1015.46
2017-11-09T02:00:38.868Z,1015.47
2017-11-09T02:01:19.425Z,1015.49
2017-11-09T02:01:59.961Z,1015.45
2017-11-09T02:02:40.485Z,1015.49
2017-11-09T02:03:21.017Z,1015.47
2017-11-09T02:04:01.542Z,1015.49
2017-11-09T02:04:42.075Z,1015.46
2017-11-09T02:05:22.608Z,1015.43
2017-11-09T02:06:03.141Z,1015.49
2017-11-09T02:06:43.671Z,1015.47
2017-11-09T02:07:24.211Z,1015.48
2017-11-09T02:08:04.735Z,1015.48
2017-11-09T02:08:45.266Z,1015.47
2017-11-09T02:09:25.838Z,1015.5
2017-11-09T02:10:06.334Z,1015.49
2017-11-09T02:10:46.869Z,1015.49
2017-11-09T02:11:27.399Z,1015.46
2017-11-09T02:12:07.928Z,1015.48
2017-11-09T02:12:48.461Z,1015.48
2017-11-09T02:13:28.981Z,1015.47
2017-11-09T02:14:09.499Z,1015.42
2017-11-09T02:14:50.030Z,1015.47
2017-11-09T02:15:30.558Z,1015.43
2017-11-09T02:16:11.094Z,1015.47
2017-11-09T02:16:51.626Z,1015.48
2017-11-09T02:17:32.157Z,1015.44
2017-11-09T02:18:12.684Z,1015.45
2017-11-09T02:18:53.228Z,1015.47
2017-11-09T02:19:33.767Z,1015.47
2017-11-09T02:20:14.294Z,1015.45
2017-11-09T02:20:54.821Z,1015.46
2017-11-09T02:21:35.358Z,1015.48
2017-11-09T02:22:15.882Z,1015.47
2017-11-09T02:22:56.412Z,1015.45
2017-11-09T02:23:36.945Z,1015.47
2017-11-09T02:24:17.472Z,1015.47
2017-11-09T02:24:58.000Z,1015.44
2017-11-09T02:25:38.540Z,1015.45
2017-11-09T02:26:19.071Z,1015.45
2017-11-09T02:26:59.601Z,1015.49
2017-11-09T02:27:40.121Z,1015.46
2017-11-09T02:28:20.650Z,1015.48
2017-11-09T02:29:01.193Z,1015.48
2017-11-09T02:29:41.716Z,1015.47
2017-11-09T02:30:22.250Z,1015.46
2017-11-09T02:31:02.775Z,1015.51
2017-11-09T02:31:43.326Z,1015.51
2017-11-09T02:32:23.835Z,1015.5
2017-11-09T02:33:04.365Z,1015.5
2017-11-09T02:33:44.904Z,1015.52
2017-11-09T02:34:25.415Z,1015.51
2017-11-09T02:35:05.941Z,1015.53
2017-11-09T02:35:46.469Z,1015.53
2017-11-09T02:36:26.998Z,1015.52
2017-11-09T02:37:07.516Z,1015.55
2017-11-09T02:37:48.042Z,1015.55
2017-11-09T02:38:28.579Z,1015.58
2017-11-09T02:39:09.105Z,1015.55
2017-11-09T02:39:49.650Z,1015.59
2017-11-09T02:40:30.162Z,1015.58
2017-11-09T02:41:10.685Z,1015.57
2017-11-09T02:41:51.210Z,1015.56
2017-11-09T02:42:31.738Z,1015.58
2017-11-09T02:43:12.253Z,1015.56
2017-11-09T02:43:52.783Z,1015.6
2017-11-09T02:44:33.315Z,1015.58
2017-11-09T02:45:13.854Z,1015.6
2017-11-09T02:45:54.379Z,1015.57
2017-11-09T02:46:34.912Z,1015.55
2017-11-09T02:47:15.431Z,1015.6
2017-11-09T02:47:55.964Z,1015.57
2017-11-09T02:48:36.495Z,1015.57
2017-11-09T02:49:17.012Z,1015.54
2017-11-09T02:49:57.554Z,1015.56
2017-11-09T02:50:38.071Z,1015.55
2017-11-09T02:51:18.618Z,1015.58
2017-11-09T02:51:59.147Z,1015.55
2017-11-09T02:52:39.669Z,1015.59
2017-11-09T02:53:20.252Z,1015.58
2017-11-09T02:54:07.354Z,1015.56
2017-11-09T02:54:47.879Z,1015.57
2017-11-09T02:55:28.410Z,1015.57
2017-11-09T02:56:08.945Z,1015.57
2017-11-09T02:56:49.479Z,1015.54
2017-11-09T02:57:30.006Z,1015.58
2017-11-09T02:58:10.535Z,1015.57
2017-11-09T02:58:51.072Z,1015.59
2017-11-09T02:59:31.613Z,1015.6
2017-11-09T03:00:12.142Z,1015.61
2017-11-09T03:00:52.684Z,1015.63
2017-11-09T03:01:33.209Z,1015.62
2017-11-09T03:02:13.732Z,1015.66
2017-11-09T03:02:54.265Z,1015.59
2017-11-09T03:03:34.802Z,1015.59
2017-11-09T03:04:15.339Z,1015.6
2017-11-09T03:04:55.876Z,1015.63
2017-11-09T03:05:36.404Z,1015.63
2017-11-09T03:06:16.935Z,1015.63
2017-11-09T03:06:57.466Z,1015.65
2017-11-09T03:07:38.004Z,1015.67
2017-11-09T03:08:18.533Z,1015.68
2017-11-09T03:08:59.063Z,1015.69
2017-11-09T03:09:39.594Z,1015.7
2017-11-09T03:10:20.134Z,1015.71
2017-11-09T03:11:00.669Z,1015.74
2017-11-09T03:11:41.205Z,1015.71
2017-11-09T03:12:21.742Z,1015.7
2017-11-09T03:13:02.280Z,1015.74
2017-11-09T03:13:42.815Z,1015.75
2017-11-09T03:14:23.352Z,1015.76
2017-11-09T03:15:03.887Z,1015.78
2017-11-09T03:15:44.421Z,1015.75
2017-11-09T03:16:24.957Z,1015.75
2017-11-09T03:17:05.500Z,1015.7
2017-11-09T03:17:46.036Z,1015.74
2017-11-09T03:18:26.562Z,1015.71
2017-11-09T03:19:07.096Z,1015.72
2017-11-09T03:19:47.635Z,1015.7
2017-11-09T03:20:28.166Z,1015.76
2017-11-09T03:21:08.702Z,1015.72
2017-11-09T03:21:49.244Z,1015.72
2017-11-09T03:22:29.777Z,1015.74
2017-11-09T03:23:10.305Z,1015.76
2017-11-09T03:23:50.835Z,1015.73
2017-11-09T03:24:31.376Z,1015.77
2017-11-09T03:25:11.917Z,1015.77
2017-11-09T03:25:52.444Z,1015.72
2017-11-09T03:26:32.986Z,1015.71
2017-11-09T03:27:13.516Z,1015.71
2017-11-09T03:27:54.042Z,1015.72
2017-11-09T03:28:34.571Z,1015.76
2017-11-09T03:29:15.103Z,1015.73
2017-11-09T03:29:55.650Z,1015.74
2017-11-09T03:30:36.311Z,1015.73
2017-11-09T03:31:16.850Z,1015.73
2017-11-09T03:31:57.384Z,1015.75
2017-11-09T03:32:37.899Z,1015.72
2017-11-09T03:33:18.422Z,1015.73
2017-11-09T03:33:58.949Z,1015.74
2017-11-09T03:34:39.476Z,1015.72
2017-11-09T03:35:20.011Z,1015.75
2017-11-09T03:36:00.545Z,1015.73
2017-11-09T03:36:41.076Z,1015.76
2017-11-09T03:37:21.609Z,1015.76
2017-11-09T03:38:02.146Z,1015.76
2017-11-09T03:38:42.682Z,1015.74
2017-11-09T03:39:23.274Z,1015.76
2017-11-09T03:40:03.762Z,1015.82
2017-11-09T03:40:44.292Z,1015.81
2017-11-09T03:41:24.823Z,1015.84
2017-11-09T03:42:05.360Z,1015.78
2017-11-09T03:42:45.874Z,1015.84
2017-11-09T03:43:26.413Z,1015.89
2017-11-09T03:44:06.942Z,1015.83
2017-11-09T03:44:47.476Z,1015.86
2017-11-09T03:45:28.024Z,1015.86
2017-11-09T03:46:08.543Z,1015.88
2017-11-09T03:46:49.068Z,1015.86
2017-11-09T03:47:29.599Z,1015.86
2017-11-09T03:48:10.133Z,1015.87
2017-11-09T03:48:50.669Z,1015.87
2017-11-09T03:49:31.204Z,1015.87
2017-11-09T03:50:11.733Z,1015.87
2017-11-09T03:50:52.267Z,1015.88
2017-11-09T03:51:32.791Z,1015.87
2017-11-09T03:52:13.320Z,1015.83
2017-11-09T03:52:53.855Z,1015.88
2017-11-09T03:53:34.454Z,1015.91
2017-11-09T03:54:14.980Z,1015.9
2017-11-09T03:54:55.524Z,1015.92
2017-11-09T03:55:36.060Z,1015.88
2017-11-09T03:56:16.591Z,1015.9
2017-11-09T03:56:57.125Z,1015.89
2017-11-09T03:57:37.654Z,1015.94
2017-11-09T03:58:18.185Z,1015.92
2017-11-09T03:58:58.719Z,1015.92
2017-11-09T03:59:39.254Z,1015.92
2017-11-09T04:00:19.788Z,1015.93
2017-11-09T04:01:00.316Z,1015.93
2017-11-09T04:01:40.848Z,1015.93
2017-11-09T04:02:21.386Z,1015.99
2017-11-09T04:03:01.906Z,1015.98
2017-11-09T04:03:42.434Z,1015.94
2017-11-09T04:04:22.971Z,1015.93
2017-11-09T04:05:03.499Z,1015.96
2017-11-09T04:05:44.026Z,1015.94
2017-11-09T04:06:24.557Z,1015.96
2017-11-09T04:07:05.076Z,1015.98
2017-11-09T04:07:45.617Z,1015.98
2017-11-09T04:08:26.140Z,1016
2017-11-09T04:09:06.677Z,1016
2017-11-09T04:09:47.210Z,1016.02
2017-11-09T04:10:27.745Z,1016.01
2017-11-09T04:11:08.278Z,1016.04
2017-11-09T04:11:48.816Z,1016.07
2017-11-09T04:12:29.353Z,1016.06
2017-11-09T04:13:09.879Z,1016.06
2017-11-09T04:13:50.414Z,1016.04
2017-11-09T04:14:30.927Z,1016.04
2017-11-09T04:15:11.459Z,1016.06
2017-11-09T04:15:51.995Z,1016.06
2017-11-09T04:16:32.527Z,1016.02
2017-11-09T04:17:13.066Z,1016.03
2017-11-09T04:17:53.576Z,1016.02
2017-11-09T04:18:34.109Z,1016.02
2017-11-09T04:19:14.640Z,1016.01
2017-11-09T04:19:55.166Z,1016.05
2017-11-09T04:20:35.692Z,1016.05
2017-11-09T04:21:16.212Z,1016.04
2017-11-09T04:21:56.743Z,1016.06
2017-11-09T04:22:37.280Z,1016.05
2017-11-09T04:23:17.815Z,1016.03
2017-11-09T04:23:58.343Z,1016.06
2017-11-09T04:24:38.853Z,1016.06
2017-11-09T04:25:19.388Z,1016.04
2017-11-09T04:25:59.915Z,1016.09
2017-11-09T04:26:40.894Z,1016.1
2017-11-09T04:27:21.401Z,1016.07
2017-11-09T04:28:02.000Z,1016.04
2017-11-09T04:28:42.536Z,1016.05
2017-11-09T04:29:23.072Z,1016.03
2017-11-09T04:30:03.609Z,1016.04
2017-11-09T04:30:44.138Z,1016.06
2017-11-09T04:31:24.678Z,1016.02
2017-11-09T04:32:05.220Z,1016.07
2017-11-09T04:32:45.756Z,1016.08
2017-11-09T04:33:26.297Z,1016.05
2017-11-09T04:34:06.842Z,1016.06
2017-11-09T04:34:47.372Z,1016.07
2017-11-09T04:35:27.901Z,1016.08
2017-11-09T04:36:08.425Z,1016.07
2017-11-09T04:36:48.956Z,1016.05
2017-11-09T04:37:29.494Z,1016.07
2017-11-09T04:38:10.015Z,1016.13
2017-11-09T04:38:50.550Z,1016.11
2017-11-09T04:39:31.083Z,1016.12
2017-11-09T04:40:11.621Z,1016.09
2017-11-09T04:40:52.145Z,1016.11
2017-11-09T04:41:32.654Z,1016.11
2017-11-09T04:42:13.182Z,1016.16
2017-11-09T04:42:53.713Z,1016.14
2017-11-09T04:43:34.227Z,1016.1
2017-11-09T04:44:14.775Z,1016.13
2017-11-09T04:44:55.283Z,1016.1
2017-11-09T04:45:35.813Z,1016.11
2017-11-09T04:46:16.344Z,1016.12
2017-11-09T04:46:56.872Z,1016.11
2017-11-09T04:47:37.378Z,1016.11
2017-11-09T04:48:17.920Z,1016.1
2017-11-09T04:48:58.448Z,1016.15
2017-11-09T04:49:38.978Z,1016.12
2017-11-09T04:50:19.501Z,1016.14
2017-11-09T04:51:00.028Z,1016.15
2017-11-09T04:51:40.567Z,1016.17
2017-11-09T04:52:21.157Z,1016.16
2017-11-09T04:53:01.604Z,1016.21
2017-11-09T04:53:42.147Z,1016.18
2017-11-09T04:54:22.681Z,1016.22
2017-11-09T04:55:03.220Z,1016.19
2017-11-09T04:55:43.787Z,1016.18
2017-11-09T04:56:24.320Z,1016.21
2017-11-09T04:57:04.844Z,1016.19
2017-11-09T04:57:45.362Z,1016.23
2017-11-09T04:58:25.879Z,1016.22
2017-11-09T04:59:06.413Z,1016.19
2017-11-09T04:59:46.937Z,1016.21
2017-11-09T05:00:27.465Z,1016.24
2017-11-09T05:01:07.994Z,1016.18
2017-11-09T05:01:48.515Z,1016.15
2017-11-09T05:02:29.040Z,1016.17
2017-11-09T05:03:09.595Z,1016.18
2017-11-09T05:03:50.164Z,1016.18
2017-11-09T05:04:30.670Z,1016.15
2017-11-09T05:05:11.188Z,1016.17
2017-11-09T05:05:51.716Z,1016.16
2017-11-09T05:06:32.255Z,1016.13
2017-11-09T05:07:12.791Z,1016.18
2017-11-09T05:07:53.418Z,1016.18
2017-11-09T05:08:33.906Z,1016.16
2017-11-09T05:09:14.418Z,1016.17
2017-11-09T05:09:54.947Z,1016.14
2017-11-09T05:10:35.481Z,1016.14
2017-11-09T05:11:16.002Z,1016.15
2017-11-09T05:11:56.506Z,1016.14
2017-11-09T05:12:37.077Z,1016.12
2017-11-09T05:13:17.627Z,1016.14
2017-11-09T05:13:58.106Z,1016.16
2017-11-09T05:14:38.670Z,1016.15
2017-11-09T05:15:19.191Z,1016.18
2017-11-09T05:15:59.697Z,1016.18
2017-11-09T05:16:40.229Z,1016.18
2017-11-09T05:17:20.765Z,1016.19
2017-11-09T05:18:01.289Z,1016.17
2017-11-09T05:18:41.817Z,1016.17
2017-11-09T05:19:22.351Z,1016.16
2017-11-09T05:20:02.897Z,1016.15
2017-11-09T05:20:43.434Z,1016.16
2017-11-09T05:21:23.969Z,1016.18
2017-11-09T05:22:04.494Z,1016.19
2017-11-09T05:22:45.025Z,1016.16
2017-11-09T05:23:25.604Z,1016.17
2017-11-09T05:24:06.106Z,1016.2
2017-11-09T05:24:47.778Z,1016.2
2017-11-09T05:25:28.150Z,1016.22
2017-11-09T05:26:08.735Z,1016.2
2017-11-09T05:26:49.217Z,1016.17
2017-11-09T05:27:29.774Z,1016.22
2017-11-09T05:28:10.305Z,1016.2
2017-11-09T05:28:50.783Z,1016.21
2017-11-09T05:29:31.294Z,1016.19
2017-11-09T05:30:12.546Z,1016.21
2017-11-09T05:30:53.072Z,1016.18
2017-11-09T05:31:33.630Z,1016.24
2017-11-09T05:32:14.151Z,1016.13
2017-11-09T05:32:54.784Z,1016.22
2017-11-09T05:33:35.312Z,1016.18
2017-11-09T05:34:15.838Z,1016.21
2017-11-09T05:34:56.353Z,1016.2
2017-11-09T05:35:36.893Z,1016.2
2017-11-09T05:36:17.401Z,1016.19
2017-11-09T05:36:57.907Z,1016.19
2017-11-09T05:37:38.432Z,1016.17
2017-11-09T05:38:18.983Z,1016.16
2017-11-09T05:38:59.500Z,1016.14
2017-11-09T05:39:40.024Z,1016.15
2017-11-09T05:40:20.567Z,1016.15
2017-11-09T05:41:01.091Z,1016.13
2017-11-09T05:41:41.650Z,1016.09
2017-11-09T05:42:22.150Z,1016.12
2017-11-09T05:43:02.676Z,1016.1
2017-11-09T05:43:43.204Z,1016.09
2017-11-09T05:44:23.741Z,1016.1
2017-11-09T05:45:04.272Z,1016.09
2017-11-09T05:45:44.801Z,1016.08
2017-11-09T05:46:25.336Z,1016.13
2017-11-09T05:47:05.859Z,1016.12
2017-11-09T05:47:46.391Z,1016.14
2017-11-09T05:48:26.901Z,1016.15
2017-11-09T05:49:07.433Z,1016.13
2017-11-09T05:49:47.991Z,1016.16
2017-11-09T05:50:28.492Z,1016.13
2017-11-09T05:51:09.036Z,1016.18
2017-11-09T05:51:49.572Z,1016.16
2017-11-09T05:52:30.106Z,1016.16
2017-11-09T05:54:29.231Z,1016.19
2017-11-09T05:55:09.751Z,1016.19
2017-11-09T05:55:50.384Z,1016.13
2017-11-09T05:56:30.911Z,1016.16
2017-11-09T05:57:11.441Z,1016.14
2017-11-09T05:57:51.974Z,1016.15
2017-11-09T05:58:32.501Z,1016.12
2017-11-09T05:59:13.030Z,1016.09
2017-11-09T05:59:53.549Z,1016.11
2017-11-09T06:00:34.086Z,1016.12
2017-11-09T06:01:14.602Z,1016.1
2017-11-09T06:01:55.141Z,1016.17
2017-11-09T06:02:35.684Z,1016.18
2017-11-09T06:03:16.215Z,1016.18
2017-11-09T06:03:56.737Z,1016.22
2017-11-09T06:04:37.262Z,1016.23
2017-11-09T06:05:17.796Z,1016.24
2017-11-09T06:05:58.337Z,1016.25
2017-11-09T06:06:38.871Z,1016.26
2017-11-09T06:07:19.398Z,1016.27
2017-11-09T06:07:59.920Z,1016.27
2017-11-09T06:08:40.455Z,1016.23
2017-11-09T06:09:20.946Z,1016.27
2017-11-09T06:10:01.469Z,1016.24
2017-11-09T06:10:41.991Z,1016.26
2017-11-09T06:11:22.502Z,1016.24
2017-11-09T06:12:03.043Z,1016.26
2017-11-09T06:12:43.553Z,1016.27
2017-11-09T06:13:24.088Z,1016.24
2017-11-09T06:14:04.614Z,1016.27
2017-11-09T06:14:45.150Z,1016.3
2017-11-09T06:15:25.754Z,1016.28
2017-11-09T06:16:06.353Z,1016.3
2017-11-09T06:16:46.868Z,1016.26
2017-11-09T06:17:27.389Z,1016.29
2017-11-09T06:18:07.920Z,1016.33
2017-11-09T06:18:48.449Z,1016.32
2017-11-09T06:19:28.988Z,1016.34
2017-11-09T06:20:09.512Z,1016.33
2017-11-09T06:20:50.026Z,1016.37
2017-11-09T06:21:30.587Z,1016.39
2017-11-09T06:22:11.120Z,1016.41
2017-11-09T06:22:51.650Z,1016.42
2017-11-09T06:23:32.148Z,1016.43
2017-11-09T06:24:12.688Z,1016.42
2017-11-09T06:24:53.224Z,1016.43
2017-11-09T06:25:33.754Z,1016.42
2017-11-09T06:26:14.281Z,1016.44
2017-11-09T06:26:54.809Z,1016.44
2017-11-09T06:27:35.409Z,1016.45
2017-11-09T06:28:15.937Z,1016.44
2017-11-09T06:28:56.452Z,1016.45
2017-11-09T06:29:36.972Z,1016.48
2017-11-09T06:30:17.499Z,1016.44
2017-11-09T06:30:58.022Z,1016.47
2017-11-09T06:31:38.543Z,1016.47
2017-11-09T06:32:19.078Z,1016.46
2017-11-09T06:32:59.592Z,1016.43
2017-11-09T06:33:40.137Z,1016.46
2017-11-09T06:34:20.672Z,1016.47
2017-11-09T06:35:01.192Z,1016.46
2017-11-09T06:35:41.706Z,1016.47
2017-11-09T06:36:22.241Z,1016.49
2017-11-09T06:37:02.756Z,1016.51
2017-11-09T06:37:43.261Z,1016.51
2017-11-09T06:38:23.791Z,1016.5
2017-11-09T06:39:04.320Z,1016.55
2017-11-09T06:39:44.851Z,1016.54
2017-11-09T06:40:25.419Z,1016.54
2017-11-09T06:41:05.949Z,1016.56
2017-11-09T06:41:46.465Z,1016.56
2017-11-09T06:42:26.979Z,1016.56
2017-11-09T06:43:07.511Z,1016.57
2017-11-09T06:43:48.042Z,1016.6
2017-11-09T06:44:28.570Z,1016.61
2017-11-09T06:45:09.096Z,1016.6
2017-11-09T06:45:49.627Z,1016.62
2017-11-09T06:46:30.142Z,1016.6
2017-11-09T06:47:10.687Z,1016.59
2017-11-09T06:47:51.217Z,1016.6
2017-11-09T06:48:31.750Z,1016.66
2017-11-09T06:49:12.276Z,1016.65
2017-11-09T06:49:52.807Z,1016.64
2017-11-09T06:50:33.313Z,1016.62
2017-11-09T06:51:13.838Z,1016.63
2017-11-09T06:51:54.372Z,1016.63
2017-11-09T06:52:34.902Z,1016.66
2017-11-09T06:53:15.414Z,1016.62
2017-11-09T06:53:55.933Z,1016.69
2017-11-09T06:54:36.458Z,1016.66
2017-11-09T06:55:16.980Z,1016.65
2017-11-09T06:55:57.574Z,1016.66
2017-11-09T06:56:38.098Z,1016.67
2017-11-09T06:57:18.632Z,1016.68
2017-11-09T06:57:59.166Z,1016.67
2017-11-09T06:58:39.689Z,1016.67
2017-11-09T06:59:20.236Z,1016.7
2017-11-09T07:00:00.745Z,1016.67
2017-11-09T07:00:41.250Z,1016.69
2017-11-09T07:01:21.828Z,1016.7
2017-11-09T07:02:02.361Z,1016.7
2017-11-09T07:02:42.893Z,1016.68
2017-11-09T07:03:23.421Z,1016.69
2017-11-09T07:04:03.949Z,1016.72
2017-11-09T07:04:44.486Z,1016.75
2017-11-09T07:05:25.016Z,1016.74
2017-11-09T07:06:05.538Z,1016.75
2017-11-09T07:06:46.055Z,1016.72
2017-11-09T07:07:26.565Z,1016.73
2017-11-09T07:08:07.080Z,1016.74
2017-11-09T07:08:47.610Z,1016.75
2017-11-09T07:09:28.127Z,1016.72
2017-11-09T07:10:08.669Z,1016.73
2017-11-09T07:10:49.190Z,1016.76
2017-11-09T07:11:29.703Z,1016.73
2017-11-09T07:12:10.239Z,1016.7
2017-11-09T07:12:50.779Z,1016.72
2017-11-09T07:13:31.313Z,1016.68
2017-11-09T07:14:11.838Z,1016.72
2017-11-09T07:14:52.365Z,1016.74
2017-11-09T07:15:32.927Z,1016.69
2017-11-09T07:16:13.446Z,1016.71
2017-11-09T07:16:53.991Z,1016.68
2017-11-09T07:17:34.517Z,1016.73
2017-11-09T07:18:15.054Z,1016.75
2017-11-09T07:18:55.561Z,1016.78
2017-11-09T07:19:36.091Z,1016.77
2017-11-09T07:20:16.630Z,1016.78
2017-11-09T07:20:57.131Z,1016.82
2017-11-09T07:21:37.658Z,1016.86
2017-11-09T07:22:18.170Z,1016.86
2017-11-09T07:22:58.693Z,1016.91
2017-11-09T07:23:39.245Z,1016.93
2017-11-09T07:24:19.775Z,1016.93
2017-11-09T07:25:00.296Z,1016.98
2017-11-09T07:25:40.855Z,1016.95
2017-11-09T07:26:21.347Z,1016.97
2017-11-09T07:27:01.871Z,1016.97
2017-11-09T07:27:42.402Z,1016.99
2017-11-09T07:28:22.950Z,1017
2017-11-09T07:29:03.453Z,1016.99
2017-11-09T07:29:43.975Z,1017.02
2017-11-09T07:30:24.535Z,1017.08
2017-11-09T07:31:05.054Z,1017.05
2017-11-09T07:31:45.608Z,1017.03
2017-11-09T07:32:26.108Z,1017.08
2017-11-09T07:33:06.635Z,1017.09
2017-11-09T07:33:47.173Z,1017.1
2017-11-09T07:34:27.713Z,1017.13
2017-11-09T07:35:08.244Z,1017.18
2017-11-09T07:35:48.783Z,1017.2
2017-11-09T07:36:29.320Z,1017.19
2017-11-09T07:37:09.852Z,1017.18
2017-11-09T07:37:50.381Z,1017.18
2017-11-09T07:38:30.927Z,1017.16
2017-11-09T07:39:11.466Z,1017.18
2017-11-09T07:39:52.001Z,1017.21
2017-11-09T07:40:32.593Z,1017.14
2017-11-09T07:41:13.128Z,1017.15
2017-11-09T07:41:53.651Z,1017.16
2017-11-09T07:42:34.177Z,1017.18
2017-11-09T07:43:14.698Z,1017.17
2017-11-09T07:43:55.229Z,1017.17
2017-11-09T07:44:35.749Z,1017.15
2017-11-09T07:45:16.265Z,1017.14
2017-11-09T07:45:56.786Z,1017.14
2017-11-09T07:46:37.332Z,1017.16
2017-11-09T07:47:17.855Z,1017.17
2017-11-09T07:47:58.376Z,1017.22
2017-11-09T07:48:38.898Z,1017.25
2017-11-09T07:49:19.434Z,1017.24
2017-11-09T07:49:59.969Z,1017.25
2017-11-09T07:50:40.493Z,1017.23
2017-11-09T07:51:21.027Z,1017.26
2017-11-09T07:52:01.536Z,1017.25
2017-11-09T07:52:42.053Z,1017.24
2017-11-09T07:53:22.594Z,1017.23
2017-11-09T07:54:03.122Z,1017.25
2017-11-09T07:54:43.640Z,1017.23
2017-11-09T07:55:24.175Z,1017.25
2017-11-09T07:56:04.693Z,1017.22
2017-11-09T07:56:45.222Z,1017.24
2017-11-09T07:57:25.753Z,1017.27
2017-11-09T07:58:06.280Z,1017.26
2017-11-09T07:58:46.809Z,1017.25
2017-11-09T07:59:27.342Z,1017.27
2017-11-09T08:00:07.842Z,1017.27
2017-11-09T08:00:48.352Z,1017.27
2017-11-09T08:01:28.885Z,1017.3
2017-11-09T08:02:09.388Z,1017.33
2017-11-09T08:02:49.912Z,1017.32
2017-11-09T08:03:30.419Z,1017.36
2017-11-09T08:04:10.943Z,1017.33
2017-11-09T08:04:51.447Z,1017.33
2017-11-09T08:05:31.974Z,1017.39
2017-11-09T08:06:12.509Z,1017.35
2017-11-09T08:06:53.043Z,1017.37
2017-11-09T08:07:33.569Z,1017.35
2017-11-09T08:08:14.087Z,1017.35
2017-11-09T08:08:54.644Z,1017.33
2017-11-09T08:09:35.157Z,1017.35
2017-11-09T08:10:15.682Z,1017.35
2017-11-09T08:10:56.219Z,1017.34
2017-11-09T08:11:36.745Z,1017.36
2017-11-09T08:12:17.275Z,1017.37
2017-11-09T08:12:57.794Z,1017.37
2017-11-09T08:13:38.323Z,1017.36